createdAt,value
2018-02-17T00:00:07.456Z,13.40
2018-02-17T00:02:34.912Z,22.17
2018-02-17T00:05:02.368Z,17.77
2018-02-17T00:07:29.772Z,16.97
2018-02-17T00:09:57.982Z,20.03
2018-02-17T00:12:25.461Z,21.77
2018-02-17T00:14:52.921Z,11.97
2018-02-17T00:17:20.404Z,19.60
2018-02-17T00:19:47.842Z,15.43
2018-02-17T00:22:15.292Z,21.83
2018-02-17T00:24:42.725Z,23.37
2018-02-17T00:27:10.220Z,22.77
2018-02-17T00:29:37.671Z,21.47
2018-02-17T00:32:05.093Z,23.97
2018-02-17T00:34:33.315Z,28.37
2018-02-17T00:37:00.762Z,23.93
2018-02-17T00:39:28.176Z,22.77
2018-02-17T00:41:56.377Z,21.47
2018-02-17T00:44:23.800Z,21.20
2018-02-17T00:46:51.241Z,23.43
2018-02-17T00:49:18.674Z,23.07
2018-02-17T00:51:46.127Z,25.50
2018-02-17T00:54:13.593Z,26.90
2018-02-17T00:56:41.025Z,23.67
2018-02-17T00:59:08.512Z,20.40
2018-02-17T01:01:35.950Z,19.87
2018-02-17T01:04:03.372Z,11.80
2018-02-17T01:06:30.801Z,16.73
2018-02-17T01:08:58.244Z,14.53
2018-02-17T01:11:25.672Z,15.07
2018-02-17T01:13:53.166Z,15.17
2018-02-17T01:16:20.600Z,14.60
2018-02-17T01:18:48.029Z,11.43
2018-02-17T01:21:16.252Z,19.53
2018-02-17T01:23:43.696Z,15.43
2018-02-17T01:26:11.118Z,21.20
2018-02-17T01:28:39.337Z,12.83
2018-02-17T01:31:06.896Z,14.07
2018-02-17T01:33:34.308Z,11.90
2018-02-17T01:36:02.536Z,15.53
2018-02-17T01:38:29.988Z,13.77
2018-02-17T01:40:57.453Z,11.23
2018-02-17T01:43:24.901Z,10.77
2018-02-17T01:45:52.317Z,9.40
2018-02-17T01:48:20.513Z,15.33
2018-02-17T01:50:47.948Z,23.93
2018-02-17T01:53:17.027Z,14.40
2018-02-17T01:55:44.452Z,13.13
2018-02-17T01:58:11.881Z,15.07
2018-02-17T02:00:39.364Z,16.07
2018-02-17T02:03:06.804Z,21.47
2018-02-17T02:05:34.231Z,23.80
2018-02-17T02:08:01.737Z,16.93
2018-02-17T02:10:29.192Z,16.00
2018-02-17T02:12:56.625Z,13.30
2018-02-17T02:15:24.068Z,16.43
2018-02-17T02:17:52.273Z,16.33
2018-02-17T02:20:19.701Z,17.00
2018-02-17T02:22:47.907Z,13.30
2018-02-17T02:25:15.332Z,16.17
2018-02-17T02:27:43.529Z,15.40
2018-02-17T02:30:11.006Z,13.90
2018-02-17T02:32:38.438Z,17.93
2018-02-17T02:35:05.921Z,18.23
2018-02-17T02:37:33.370Z,13.33
2018-02-17T02:40:00.804Z,15.00
2018-02-17T02:42:29.017Z,13.87
2018-02-17T02:44:56.459Z,12.57
2018-02-17T02:47:23.928Z,17.63
2018-02-17T02:49:51.385Z,18.13
2018-02-17T02:52:18.848Z,15.30
2018-02-17T02:54:46.276Z,23.80
2018-02-17T02:57:13.700Z,12.77
2018-02-17T02:59:41.922Z,20.47
2018-02-17T03:02:09.348Z,14.30
2018-02-17T03:04:37.558Z,21.27
2018-02-17T03:07:05.034Z,16.23
2018-02-17T03:09:32.417Z,16.80
2018-02-17T03:11:59.939Z,22.80
2018-02-17T03:14:27.382Z,23.47
2018-02-17T03:16:54.891Z,18.13
2018-02-17T03:19:22.410Z,21.73
2018-02-17T03:21:49.866Z,23.40
2018-02-17T03:24:17.296Z,21.63
2018-02-17T03:26:44.728Z,15.10
2018-02-17T03:29:12.952Z,17.40
2018-02-17T03:31:40.409Z,21.43
2018-02-17T03:34:07.840Z,13.93
2018-02-17T03:36:35.326Z,14.63
2018-02-17T03:39:02.752Z,11.50
2018-02-17T03:41:30.180Z,15.43
2018-02-17T03:43:57.616Z,14.33
2018-02-17T03:46:25.045Z,19.40
2018-02-17T03:48:52.478Z,14.47
2018-02-17T03:51:19.912Z,21.13
2018-02-17T03:53:48.114Z,15.17
2018-02-17T03:56:15.540Z,15.80
2018-02-17T03:58:43.764Z,20.80
2018-02-17T04:01:11.192Z,21.40
2018-02-17T04:03:38.615Z,20.73
2018-02-17T04:06:06.140Z,18.87
2018-02-17T04:08:33.569Z,21.03
2018-02-17T04:11:01.048Z,17.43
2018-02-17T04:13:28.500Z,16.60
2018-02-17T04:15:55.920Z,22.80
2018-02-17T04:18:24.132Z,19.23
2018-02-17T04:20:51.609Z,13.23
2018-02-17T04:23:19.048Z,14.30
2018-02-17T04:25:46.512Z,19.00
2018-02-17T04:28:13.967Z,17.23
2018-02-17T04:30:41.424Z,18.90
2018-02-17T04:33:08.875Z,20.60
2018-02-17T04:35:36.345Z,14.57
2018-02-17T04:38:03.772Z,13.77
2018-02-17T04:40:32.784Z,19.63
2018-02-17T04:43:06.144Z,21.03
2018-02-17T04:45:50.140Z,22.63
2018-02-17T04:48:34.236Z,19.57
2018-02-17T04:51:18.116Z,16.50
2018-02-17T04:53:51.364Z,14.10
2018-02-17T04:56:20.496Z,14.00
2018-02-17T04:59:05.604Z,20.60
2018-02-17T05:01:48.685Z,23.53
2018-02-17T05:04:21.948Z,16.57
2018-02-17T05:06:57.700Z,16.73
2018-02-17T05:09:25.908Z,17.37
2018-02-17T05:11:53.338Z,19.97
2018-02-17T05:14:27.274Z,25.23
2018-02-17T05:17:13.471Z,20.67
2018-02-17T05:20:00.704Z,17.93
2018-02-17T05:22:28.136Z,24.80
2018-02-17T05:24:55.568Z,19.47
2018-02-17T05:27:39.444Z,18.60
2018-02-17T05:30:24.724Z,21.30
2018-02-17T05:32:57.826Z,23.60
2018-02-17T05:35:26.724Z,18.33
2018-02-17T05:37:54.159Z,27.40
2018-02-17T05:40:24.497Z,24.80
2018-02-17T05:42:51.931Z,22.20
2018-02-17T05:45:19.373Z,18.00
2018-02-17T05:47:46.810Z,20.67
2018-02-17T05:50:15.419Z,20.40
2018-02-17T05:52:42.848Z,18.07
2018-02-17T05:55:11.173Z,18.83
2018-02-17T05:57:38.727Z,28.60
2018-02-17T06:00:06.140Z,21.03
2018-02-17T06:02:34.464Z,28.37
2018-02-17T06:05:01.911Z,24.60
2018-02-17T06:07:29.337Z,19.87
2018-02-17T06:09:57.648Z,19.77
2018-02-17T06:12:25.121Z,20.13
2018-02-17T06:14:52.569Z,24.77
2018-02-17T06:17:20.123Z,24.53
2018-02-17T06:19:48.325Z,25.87
2018-02-17T06:22:15.792Z,25.97
2018-02-17T06:24:43.244Z,22.93
2018-02-17T06:27:10.713Z,27.03
2018-02-17T06:29:38.152Z,18.90
2018-02-17T06:32:05.593Z,24.50
2018-02-17T06:34:33.020Z,24.07
2018-02-17T06:37:00.459Z,19.93
2018-02-17T06:39:27.896Z,15.70
2018-02-17T06:41:55.338Z,23.80
2018-02-17T06:44:22.761Z,24.53
2018-02-17T06:46:50.977Z,29.93
2018-02-17T06:49:18.436Z,21.73
2018-02-17T06:51:45.869Z,20.20
2018-02-17T06:54:13.308Z,22.93
2018-02-17T06:56:41.531Z,25.37
2018-02-17T06:59:08.973Z,29.27
2018-02-17T07:01:36.396Z,23.33
2018-02-17T07:04:04.616Z,23.67
2018-02-17T07:06:32.068Z,30.83
2018-02-17T07:08:59.581Z,22.20
2018-02-17T07:11:27.008Z,22.40
2018-02-17T07:13:54.457Z,21.83
2018-02-17T07:16:21.896Z,29.23
2018-02-17T07:18:49.437Z,25.67
2018-02-17T07:21:16.887Z,23.77
2018-02-17T07:23:44.312Z,19.97
2018-02-17T07:26:12.529Z,24.40
2018-02-17T07:28:39.956Z,26.10
2018-02-17T07:31:07.440Z,23.87
2018-02-17T07:33:34.880Z,28.90
2018-02-17T07:36:02.318Z,24.40
2018-02-17T07:38:30.632Z,19.43
2018-02-17T07:40:58.087Z,25.23
2018-02-17T07:43:25.544Z,25.43
2018-02-17T07:45:52.976Z,21.13
2018-02-17T07:48:20.412Z,22.53
2018-02-17T07:50:48.630Z,24.10
2018-02-17T07:53:16.060Z,26.37
2018-02-17T07:55:43.489Z,27.40
2018-02-17T07:58:11.008Z,29.07
2018-02-17T08:00:38.452Z,26.80
2018-02-17T08:03:05.897Z,23.80
2018-02-17T08:05:33.380Z,43.30
2018-02-17T08:08:00.900Z,32.20
2018-02-17T08:10:29.104Z,23.27
2018-02-17T08:12:56.537Z,35.47
2018-02-17T08:15:24.769Z,33.23
2018-02-17T08:17:52.220Z,41.00
2018-02-17T08:20:19.660Z,39.03
2018-02-17T08:22:47.120Z,35.93
2018-02-17T08:25:14.604Z,36.90
2018-02-17T08:27:42.139Z,38.33
2018-02-17T08:30:09.585Z,34.17
2018-02-17T08:32:37.029Z,45.23
2018-02-17T08:35:04.518Z,32.37
2018-02-17T08:37:31.968Z,41.13
2018-02-17T08:39:59.424Z,36.37
2018-02-17T08:42:26.884Z,31.27
2018-02-17T08:44:54.329Z,40.30
2018-02-17T08:47:21.753Z,46.03
2018-02-17T08:49:49.949Z,34.77
2018-02-17T08:52:17.408Z,32.47
2018-02-17T08:54:44.874Z,42.73
2018-02-17T08:57:12.309Z,48.37
2018-02-17T08:59:39.748Z,35.50
2018-02-17T09:02:07.963Z,34.30
2018-02-17T09:04:35.393Z,43.30
2018-02-17T09:07:03.603Z,34.30
2018-02-17T09:09:31.064Z,33.50
2018-02-17T09:11:58.497Z,31.03
2018-02-17T09:14:25.976Z,29.93
2018-02-17T09:16:53.405Z,30.63
2018-02-17T09:19:20.832Z,25.63
2018-02-17T09:21:48.348Z,43.73
2018-02-17T09:24:15.789Z,89.67
2018-02-17T09:26:43.220Z,226.10
2018-02-17T09:29:11.448Z,257.33
2018-02-17T09:31:38.902Z,137.13
2018-02-17T09:34:06.370Z,52.00
2018-02-17T09:36:33.812Z,36.23
2018-02-17T09:39:01.262Z,33.93
2018-02-17T09:41:28.685Z,31.47
2018-02-17T09:43:56.185Z,32.90
2018-02-17T09:46:23.651Z,29.03
2018-02-17T09:48:51.107Z,39.10
2018-02-17T09:51:18.552Z,33.60
2018-02-17T09:53:45.989Z,39.37
2018-02-17T09:56:13.469Z,39.17
2018-02-17T09:58:40.924Z,35.83
2018-02-17T10:01:08.371Z,35.97
2018-02-17T10:03:35.796Z,35.97
2018-02-17T10:06:04.120Z,34.90
2018-02-17T10:08:31.578Z,33.23
2018-02-17T10:10:59.037Z,35.80
2018-02-17T10:13:26.495Z,36.50
2018-02-17T10:15:53.941Z,50.80
2018-02-17T10:18:21.360Z,35.53
2018-02-17T10:20:49.577Z,37.43
2018-02-17T10:23:17.028Z,33.23
2018-02-17T10:25:44.458Z,39.93
2018-02-17T10:28:11.899Z,40.03
2018-02-17T10:30:40.101Z,38.13
2018-02-17T10:33:07.547Z,40.47
2018-02-17T10:35:35.035Z,45.90
2018-02-17T10:38:03.192Z,41.47
2018-02-17T10:40:30.709Z,40.90
2018-02-17T10:42:58.234Z,45.27
2018-02-17T10:45:25.677Z,44.77
2018-02-17T10:47:53.113Z,37.40
2018-02-17T10:50:20.550Z,38.80
2018-02-17T10:52:48.777Z,44.27
2018-02-17T10:55:17.049Z,43.30
2018-02-17T10:57:44.509Z,43.07
2018-02-17T11:00:11.942Z,47.13
2018-02-17T11:02:39.416Z,46.77
2018-02-17T11:05:06.872Z,46.50
2018-02-17T11:07:34.305Z,41.53
2018-02-17T11:10:01.793Z,42.83
2018-02-17T11:12:29.223Z,42.90
2018-02-17T11:14:56.652Z,44.27
2018-02-17T11:17:24.853Z,43.07
2018-02-17T11:19:52.328Z,44.20
2018-02-17T11:22:19.765Z,40.43
2018-02-17T11:24:47.256Z,46.03
2018-02-17T11:27:14.814Z,36.93
2018-02-17T11:29:42.242Z,38.80
2018-02-17T11:32:09.698Z,44.73
2018-02-17T11:34:37.132Z,43.13
2018-02-17T11:37:05.330Z,38.00
2018-02-17T11:39:32.758Z,34.53
2018-02-17T11:42:00.232Z,32.10
2018-02-17T11:44:28.416Z,36.83
2018-02-17T11:46:55.910Z,39.47
2018-02-17T11:49:23.364Z,37.97
2018-02-17T11:51:50.814Z,34.87
2018-02-17T11:54:18.249Z,34.40
2018-02-17T11:56:45.684Z,36.80
2018-02-17T11:59:13.880Z,36.00
2018-02-17T12:01:41.316Z,35.57
2018-02-17T12:04:09.551Z,41.03
2018-02-17T12:06:36.967Z,39.40
2018-02-17T12:09:04.461Z,36.10
2018-02-17T12:11:31.906Z,34.37
2018-02-17T12:13:59.357Z,32.00
2018-02-17T12:16:26.820Z,32.47
2018-02-17T12:18:54.290Z,38.70
2018-02-17T12:21:21.732Z,35.27
2018-02-17T12:23:49.188Z,38.60
2018-02-17T12:26:16.644Z,38.70
2018-02-17T12:28:44.081Z,37.33
2018-02-17T12:31:11.513Z,34.43
2018-02-17T12:33:39.726Z,41.77
2018-02-17T12:36:07.181Z,33.53
2018-02-17T12:38:34.682Z,33.77
2018-02-17T12:41:02.893Z,39.67
2018-02-17T12:43:31.098Z,39.33
2018-02-17T12:45:58.550Z,39.23
2018-02-17T12:48:25.973Z,37.40
2018-02-17T12:50:54.322Z,42.87
2018-02-17T12:53:21.770Z,36.20
2018-02-17T12:55:49.300Z,32.03
2018-02-17T12:58:16.718Z,42.43
2018-02-17T13:00:44.947Z,35.23
2018-02-17T13:03:12.454Z,37.13
2018-02-17T13:05:40.652Z,32.70
2018-02-17T13:08:08.077Z,37.80
2018-02-17T13:10:36.309Z,43.47
2018-02-17T13:13:03.742Z,37.03
2018-02-17T13:15:31.179Z,38.83
2018-02-17T13:17:59.494Z,34.83
2018-02-17T13:20:26.947Z,32.57
2018-02-17T13:22:54.410Z,27.53
2018-02-17T13:25:21.860Z,25.43
2018-02-17T13:27:49.294Z,27.80
2018-02-17T13:30:17.490Z,26.30
2018-02-17T13:32:44.925Z,24.90
2018-02-17T13:35:12.360Z,26.67
2018-02-17T13:37:39.781Z,29.40
2018-02-17T13:40:07.238Z,30.60
2018-02-17T13:42:34.719Z,30.20
2018-02-17T13:45:02.964Z,34.37
2018-02-17T13:47:30.408Z,34.00
2018-02-17T13:49:57.842Z,28.37
2018-02-17T13:52:25.333Z,32.90
2018-02-17T13:54:52.783Z,24.80
2018-02-17T13:57:20.218Z,26.47
2018-02-17T13:59:47.659Z,22.60
2018-02-17T14:02:15.874Z,25.03
2018-02-17T14:04:43.311Z,30.73
2018-02-17T14:07:10.733Z,24.73
2018-02-17T14:09:38.965Z,29.03
2018-02-17T14:12:06.423Z,32.00
2018-02-17T14:14:33.858Z,28.53
2018-02-17T14:17:01.312Z,23.33
2018-02-17T14:19:28.792Z,30.27
2018-02-17T14:21:56.223Z,31.60
2018-02-17T14:24:23.701Z,28.67
2018-02-17T14:26:51.154Z,27.10
2018-02-17T14:29:18.561Z,33.13
2018-02-17T14:31:45.996Z,23.30
2018-02-17T14:34:13.555Z,30.97
2018-02-17T14:36:40.987Z,27.83
2018-02-17T14:39:08.424Z,27.93
2018-02-17T14:41:35.910Z,27.17
2018-02-17T14:44:03.356Z,24.27
2018-02-17T14:46:30.829Z,25.33
2018-02-17T14:48:58.413Z,24.07
2018-02-17T14:51:25.785Z,27.03
2018-02-17T14:53:54.012Z,26.40
2018-02-17T14:56:21.449Z,25.57
2018-02-17T14:58:48.923Z,24.80
2018-02-17T15:01:16.365Z,24.70
2018-02-17T15:03:43.797Z,28.80
2018-02-17T15:06:12.001Z,21.13
2018-02-17T15:08:39.472Z,21.27
2018-02-17T15:11:06.904Z,27.70
2018-02-17T15:13:34.385Z,22.43
2018-02-17T15:16:01.837Z,23.73
2018-02-17T15:18:29.258Z,22.07
2018-02-17T15:20:57.466Z,23.00
2018-02-17T15:23:24.934Z,22.77
2018-02-17T15:25:52.396Z,26.83
2018-02-17T15:28:19.830Z,26.67
2018-02-17T15:30:47.260Z,30.13
2018-02-17T15:33:15.457Z,26.97
2018-02-17T15:35:42.886Z,32.60
2018-02-17T15:38:11.104Z,28.30
2018-02-17T15:40:38.573Z,33.43
2018-02-17T15:43:06.013Z,27.70
2018-02-17T15:45:33.458Z,37.33
2018-02-17T15:48:00.896Z,24.00
2018-02-17T15:50:29.112Z,23.17
2018-02-17T15:52:56.558Z,29.03
2018-02-17T15:55:24.024Z,27.37
2018-02-17T15:57:51.538Z,24.40
2018-02-17T16:00:19.746Z,23.27
2018-02-17T16:02:47.221Z,34.57
2018-02-17T16:05:14.716Z,25.23
2018-02-17T16:07:42.240Z,29.40
2018-02-17T16:10:09.685Z,25.17
2018-02-17T16:12:37.108Z,30.30
2018-02-17T16:15:07.364Z,30.63
2018-02-17T16:17:34.868Z,28.57
2018-02-17T16:20:03.049Z,32.60
2018-02-17T16:22:31.267Z,28.00
2018-02-17T16:24:58.733Z,31.07
2018-02-17T16:27:26.164Z,28.70
2018-02-17T16:29:53.605Z,28.90
2018-02-17T16:32:21.801Z,28.70
2018-02-17T16:34:49.226Z,27.97
2018-02-17T16:37:17.433Z,30.90
2018-02-17T16:39:44.857Z,27.07
2018-02-17T16:42:13.056Z,30.83
2018-02-17T16:44:40.501Z,34.43
2018-02-17T16:47:08.701Z,34.37
2018-02-17T16:49:36.124Z,35.30
2018-02-17T16:52:04.337Z,36.53
2018-02-17T16:54:31.767Z,39.97
2018-02-17T16:56:59.209Z,46.57
2018-02-17T16:59:26.650Z,66.97
2018-02-17T17:01:54.077Z,64.10
2018-02-17T17:04:22.272Z,56.23
2018-02-17T17:06:50.483Z,58.37
2018-02-17T17:09:17.918Z,50.97
2018-02-17T17:11:45.341Z,41.73
2018-02-17T17:14:13.618Z,52.10
2018-02-17T17:16:40.990Z,49.60
2018-02-17T17:19:09.184Z,46.87
2018-02-17T17:21:36.679Z,48.17
2018-02-17T17:24:04.108Z,47.93
2018-02-17T17:26:31.547Z,53.27
2018-02-17T17:28:58.988Z,46.37
2018-02-17T17:31:27.239Z,50.67
2018-02-17T17:33:54.708Z,46.83
2018-02-17T17:36:22.220Z,47.37
2018-02-17T17:38:49.681Z,47.07
2018-02-17T17:41:17.116Z,53.77
2018-02-17T17:43:44.564Z,46.33
2018-02-17T17:46:12.759Z,49.87
2018-02-17T17:48:40.193Z,55.23
2018-02-17T17:51:07.632Z,58.00
2018-02-17T17:53:35.833Z,59.37
2018-02-17T17:56:03.320Z,65.60
2018-02-17T17:58:30.761Z,59.47
2018-02-17T18:00:58.194Z,55.77
2018-02-17T18:03:25.633Z,54.73
2018-02-17T18:05:53.841Z,58.27
2018-02-17T18:08:21.278Z,61.20
2018-02-17T18:10:49.489Z,53.97
2018-02-17T18:13:16.958Z,52.43
2018-02-17T18:15:44.391Z,49.13
2018-02-17T18:18:11.861Z,61.07
2018-02-17T18:20:39.297Z,47.47
2018-02-17T18:23:06.736Z,50.87
2018-02-17T18:25:34.941Z,53.50
2018-02-17T18:28:02.404Z,55.87
2018-02-17T18:30:29.841Z,53.30
2018-02-17T18:32:57.264Z,65.83
2018-02-17T18:35:25.497Z,71.00
2018-02-17T18:37:52.960Z,53.97
2018-02-17T18:40:20.389Z,44.20
2018-02-17T18:42:47.867Z,40.97
2018-02-17T18:45:15.297Z,41.37
2018-02-17T18:47:42.728Z,33.07
2018-02-17T18:50:10.968Z,39.40
2018-02-17T18:52:38.404Z,38.63
2018-02-17T18:55:05.837Z,38.40
2018-02-17T18:57:33.329Z,41.93
2018-02-17T19:00:00.752Z,39.30
2018-02-17T19:02:28.188Z,41.97
2018-02-17T19:04:56.398Z,40.53
2018-02-17T19:07:23.872Z,47.70
2018-02-17T19:09:51.361Z,50.20
2018-02-17T19:12:18.805Z,48.40
2018-02-17T19:14:46.235Z,44.07
2018-02-17T19:17:13.733Z,50.63
2018-02-17T19:19:41.157Z,37.57
2018-02-17T19:22:08.580Z,46.93
2018-02-17T19:24:36.021Z,45.87
2018-02-17T19:27:04.224Z,47.77
2018-02-17T19:29:31.653Z,39.93
2018-02-17T19:31:59.857Z,48.30
2018-02-17T19:34:27.298Z,51.97
2018-02-17T19:36:55.514Z,42.93
2018-02-17T19:39:22.958Z,50.20
2018-02-17T19:41:50.384Z,51.63
2018-02-17T19:44:18.596Z,51.00
2018-02-17T19:46:46.028Z,49.77
2018-02-17T19:49:13.464Z,48.07
2018-02-17T19:51:41.684Z,46.93
2018-02-17T19:54:09.161Z,53.33
2018-02-17T19:56:36.601Z,47.70
2018-02-17T19:59:04.029Z,63.03
2018-02-17T20:01:31.464Z,62.57
2018-02-17T20:03:59.679Z,64.33
2018-02-17T20:06:27.109Z,51.70
2018-02-17T20:08:55.310Z,51.50
2018-02-17T20:11:22.776Z,39.17
2018-02-17T20:13:50.252Z,43.07
2018-02-17T20:16:17.692Z,45.13
2018-02-17T20:18:45.123Z,46.83
2018-02-17T20:21:12.544Z,59.37
2018-02-17T20:23:40.068Z,63.50
2018-02-17T20:26:07.533Z,52.63
2018-02-17T20:28:34.998Z,49.93
2018-02-17T20:31:02.530Z,49.37
2018-02-17T20:33:29.953Z,52.90
2018-02-17T20:35:58.155Z,57.37
2018-02-17T20:38:25.577Z,51.37
2018-02-17T20:40:53.894Z,51.27
2018-02-17T20:43:21.385Z,63.87
2018-02-17T20:45:49.553Z,63.30
2018-02-17T20:48:16.989Z,54.17
2018-02-17T20:50:44.447Z,62.27
2018-02-17T20:53:11.873Z,56.27
2018-02-17T20:55:39.390Z,60.17
2018-02-17T20:58:06.821Z,73.53
2018-02-17T21:00:34.292Z,61.87
2018-02-17T21:03:02.564Z,60.60
2018-02-17T21:05:30.013Z,60.40
2018-02-17T21:07:57.458Z,61.13
2018-02-17T21:10:24.885Z,57.67
2018-02-17T21:12:53.102Z,59.97
2018-02-17T21:15:20.533Z,63.43
2018-02-17T21:17:47.973Z,62.87
2018-02-17T21:20:16.178Z,69.63
2018-02-17T21:22:43.612Z,64.40
2018-02-17T21:25:11.108Z,55.47
2018-02-17T21:27:38.536Z,59.80
2018-02-17T21:30:06.025Z,67.03
2018-02-17T21:32:33.463Z,67.60
2018-02-17T21:35:00.876Z,68.07
2018-02-17T21:37:29.101Z,74.40
2018-02-17T21:39:56.556Z,71.20
2018-02-17T21:42:24.013Z,60.47
2018-02-17T21:44:51.440Z,68.90
2018-02-17T21:47:18.881Z,64.47
2018-02-17T21:49:47.086Z,68.20
2018-02-17T21:52:14.600Z,61.17
2018-02-17T21:54:42.048Z,56.93
2018-02-17T21:57:09.485Z,63.23
2018-02-17T21:59:36.909Z,64.73
2018-02-17T22:02:04.351Z,53.77
2018-02-17T22:04:32.564Z,57.93
2018-02-17T22:07:00.012Z,53.17
2018-02-17T22:09:27.494Z,57.70
2018-02-17T22:11:54.980Z,50.43
2018-02-17T22:14:22.457Z,53.03
2018-02-17T22:16:50.721Z,73.67
2018-02-17T22:19:18.234Z,65.30
2018-02-17T22:21:45.688Z,67.43
2018-02-17T22:24:13.149Z,63.97
2018-02-17T22:26:40.605Z,59.13
2018-02-17T22:29:08.048Z,58.20
2018-02-17T22:31:35.540Z,57.20
2018-02-17T22:34:02.973Z,64.63
2018-02-17T22:36:30.418Z,58.60
2018-02-17T22:38:57.901Z,67.57
2018-02-17T22:41:25.325Z,66.47
2018-02-17T22:43:52.765Z,68.93
2018-02-17T22:46:20.270Z,71.47
2018-02-17T22:48:47.712Z,72.10
2018-02-17T22:51:15.193Z,72.60
2018-02-17T22:53:42.637Z,75.47
2018-02-17T22:56:10.089Z,79.10
2018-02-17T22:58:37.561Z,81.53
2018-02-17T23:01:05.012Z,101.17
2018-02-17T23:03:32.456Z,96.57
2018-02-17T23:05:59.893Z,97.77
2018-02-17T23:08:27.345Z,87.17
2018-02-17T23:10:54.777Z,79.87
2018-02-17T23:13:23.006Z,73.77
2018-02-17T23:15:50.453Z,77.30
2018-02-17T23:18:17.887Z,68.57
2018-02-17T23:20:45.317Z,63.40
2018-02-17T23:23:12.832Z,63.03
2018-02-17T23:25:40.265Z,66.17
2018-02-17T23:28:07.693Z,69.63
2018-02-17T23:30:35.213Z,69.83
2018-02-17T23:33:02.656Z,69.37
2018-02-17T23:35:30.084Z,74.43
2018-02-17T23:37:58.289Z,60.93
2018-02-17T23:40:25.730Z,86.50
2018-02-17T23:42:53.156Z,66.27
2018-02-17T23:45:21.370Z,74.13
2018-02-17T23:47:48.805Z,74.20
2018-02-17T23:50:17.005Z,75.33
2018-02-17T23:52:44.436Z,68.53
2018-02-17T23:55:11.969Z,85.77
2018-02-17T23:57:39.496Z,81.90
